createdAt,value
2023-03-17T00:00:46.527Z,5.50
2023-03-17T00:03:30.106Z,5.50
2023-03-17T00:05:59.631Z,5.50
2023-03-17T00:08:30.311Z,5.50
2023-03-17T00:10:57.740Z,5.50
2023-03-17T00:13:25.906Z,5.40
2023-03-17T00:16:03.524Z,5.40
2023-03-17T00:18:32.087Z,5.40
2023-03-17T00:21:00.172Z,5.40
2023-03-17T00:23:27.952Z,5.30
2023-03-17T00:25:55.390Z,5.30
2023-03-17T00:28:25.683Z,5.30
2023-03-17T00:30:59.196Z,5.30
2023-03-17T00:33:33.601Z,5.30
2023-03-17T00:36:01.960Z,5.30
2023-03-17T00:38:29.931Z,5.30
2023-03-17T00:40:57.212Z,5.30
2023-03-17T00:43:24.561Z,5.30
2023-03-17T00:45:52.023Z,5.30
2023-03-17T00:48:22.478Z,5.30
2023-03-17T00:50:51.358Z,5.30
2023-03-17T00:53:21.260Z,5.30
2023-03-17T00:55:49.503Z,5.30
2023-03-17T00:58:18.001Z,5.30
2023-03-17T01:00:45.950Z,5.30
2023-03-17T01:03:13.644Z,5.30
2023-03-17T01:05:41.794Z,5.30
2023-03-17T01:08:09.577Z,5.30
2023-03-17T01:10:39.942Z,5.30
2023-03-17T01:13:07.582Z,5.30
2023-03-17T01:15:35.128Z,5.30
2023-03-17T01:18:03.302Z,5.30
2023-03-17T01:20:35.904Z,5.30
2023-03-17T01:23:03.669Z,5.30
2023-03-17T01:25:31.769Z,5.30
2023-03-17T01:27:59.936Z,5.30
2023-03-17T01:30:30.811Z,5.30
2023-03-17T01:32:59.455Z,5.30
2023-03-17T01:35:31.880Z,5.30
2023-03-17T01:37:59.604Z,5.30
2023-03-17T01:40:31.042Z,5.30
2023-03-17T01:43:17.678Z,5.40
2023-03-17T01:46:25.681Z,5.30
2023-03-17T01:48:57.235Z,5.40
2023-03-17T01:51:32.734Z,5.30
2023-03-17T01:54:03.887Z,5.30
2023-03-17T01:56:31.907Z,5.30
2023-03-17T01:59:03.756Z,5.30
2023-03-17T02:01:38.390Z,5.30
2023-03-17T02:04:07.777Z,5.30
2023-03-17T02:06:40.156Z,5.30
2023-03-17T02:09:12.644Z,5.20
2023-03-17T02:11:41.136Z,5.30
2023-03-17T02:14:09.218Z,5.30
2023-03-17T02:16:36.641Z,5.20
2023-03-17T02:19:04.195Z,5.20
2023-03-17T02:21:50.494Z,5.20
2023-03-17T02:24:36.943Z,5.30
2023-03-17T02:27:13.174Z,5.20
2023-03-17T02:29:40.794Z,5.30
2023-03-17T02:32:10.325Z,5.30
2023-03-17T02:34:37.616Z,5.20
2023-03-17T02:37:06.154Z,5.20
2023-03-17T02:39:33.441Z,5.20
2023-03-17T02:42:01.571Z,5.20
2023-03-17T02:44:28.882Z,5.20
2023-03-17T02:46:56.962Z,5.10
2023-03-17T02:49:26.010Z,5.10
2023-03-17T02:51:54.256Z,5.00
2023-03-17T02:54:21.939Z,5.00
2023-03-17T02:56:49.668Z,5.00
2023-03-17T02:59:17.236Z,5.10
2023-03-17T03:01:48.921Z,5.00
2023-03-17T03:04:16.844Z,5.00
2023-03-17T03:06:45.095Z,5.00
2023-03-17T03:09:13.087Z,5.00
2023-03-17T03:11:41.016Z,5.00
2023-03-17T03:14:08.758Z,5.00
2023-03-17T03:16:36.426Z,5.00
2023-03-17T03:19:03.883Z,5.00
2023-03-17T03:21:32.021Z,5.00
2023-03-17T03:23:59.296Z,5.00
2023-03-17T03:26:26.577Z,5.00
2023-03-17T03:28:54.266Z,5.00
2023-03-17T03:31:22.112Z,5.00
2023-03-17T03:33:49.487Z,5.10
2023-03-17T03:36:16.963Z,5.10
2023-03-17T03:38:44.427Z,5.10
2023-03-17T03:41:14.476Z,5.10
2023-03-17T03:43:41.758Z,5.10
2023-03-17T03:46:09.103Z,5.10
2023-03-17T03:48:36.517Z,5.10
2023-03-17T03:51:04.444Z,5.10
2023-03-17T03:53:31.773Z,5.10
2023-03-17T03:56:00.406Z,5.10
2023-03-17T03:58:27.708Z,5.10
2023-03-17T04:00:55.037Z,5.00
2023-03-17T04:03:22.197Z,5.00
2023-03-17T04:05:49.452Z,5.00
2023-03-17T04:08:17.035Z,5.00
2023-03-17T04:10:47.905Z,5.00
2023-03-17T04:13:15.765Z,5.00
2023-03-17T04:15:43.209Z,5.00
2023-03-17T04:18:11.100Z,5.00
2023-03-17T04:21:19.447Z,5.00
2023-03-17T04:23:47.726Z,5.00
2023-03-17T04:26:14.982Z,5.00
2023-03-17T04:28:42.473Z,5.00
2023-03-17T04:31:12.619Z,5.00
2023-03-17T04:33:40.719Z,5.00
2023-03-17T04:36:09.096Z,4.90
2023-03-17T04:38:36.443Z,4.90
2023-03-17T04:41:03.993Z,4.90
2023-03-17T04:43:31.528Z,4.90
2023-03-17T04:45:59.079Z,4.90
2023-03-17T04:48:27.398Z,4.90
2023-03-17T04:50:54.782Z,4.90
2023-03-17T04:53:22.717Z,4.80
2023-03-17T04:55:49.970Z,4.80
2023-03-17T04:58:30.068Z,4.80
2023-03-17T05:00:58.672Z,4.80
2023-03-17T05:03:27.814Z,4.80
2023-03-17T05:05:55.775Z,4.80
2023-03-17T05:08:23.281Z,4.80
2023-03-17T05:10:51.595Z,4.80
2023-03-17T05:13:19.756Z,4.80
2023-03-17T05:15:52.099Z,4.70
2023-03-17T05:18:20.650Z,4.70
2023-03-17T05:20:47.928Z,4.70
2023-03-17T05:23:15.613Z,4.60
2023-03-17T05:25:43.249Z,4.70
2023-03-17T05:28:10.793Z,4.60
2023-03-17T05:30:38.139Z,4.60
2023-03-17T05:33:06.581Z,4.60
2023-03-17T05:35:34.070Z,4.60
2023-03-17T05:38:01.446Z,4.60
2023-03-17T05:40:29.018Z,4.50
2023-03-17T05:42:57.087Z,4.50
2023-03-17T05:45:25.184Z,4.50
2023-03-17T05:47:52.421Z,4.50
2023-03-17T05:50:19.682Z,4.50
2023-03-17T05:52:48.075Z,4.50
2023-03-17T05:55:16.272Z,4.40
2023-03-17T05:57:44.169Z,4.40
2023-03-17T06:00:12.965Z,4.50
2023-03-17T06:02:41.036Z,4.40
2023-03-17T06:05:09.213Z,4.50
2023-03-17T06:07:50.945Z,4.50
2023-03-17T06:10:20.808Z,4.50
2023-03-17T06:12:48.226Z,4.50
2023-03-17T06:15:16.921Z,4.50
2023-03-17T06:17:44.868Z,4.50
2023-03-17T06:20:13.601Z,4.50
2023-03-17T06:22:51.699Z,4.50
2023-03-17T06:25:28.646Z,4.60
2023-03-17T06:27:56.690Z,4.60
2023-03-17T06:30:24.224Z,4.60
2023-03-17T06:32:51.577Z,4.70
2023-03-17T06:35:19.296Z,4.70
2023-03-17T06:37:47.178Z,4.80
2023-03-17T06:40:15.314Z,4.80
2023-03-17T06:42:42.959Z,4.80
2023-03-17T06:45:10.794Z,4.80
2023-03-17T06:47:38.590Z,4.80
2023-03-17T06:50:07.460Z,4.90
2023-03-17T06:52:34.810Z,4.90
2023-03-17T06:55:02.260Z,4.90
2023-03-17T06:57:29.673Z,4.90
2023-03-17T06:59:56.936Z,4.90
2023-03-17T07:02:25.221Z,4.90
2023-03-17T07:04:52.614Z,4.90
2023-03-17T07:07:21.345Z,5.00
2023-03-17T07:09:48.601Z,5.00
2023-03-17T07:12:16.098Z,5.10
2023-03-17T07:14:43.610Z,5.20
2023-03-17T07:17:13.219Z,5.20
2023-03-17T07:19:41.056Z,5.30
2023-03-17T07:22:10.245Z,5.30
2023-03-17T07:24:37.567Z,5.40
2023-03-17T07:27:04.871Z,5.40
2023-03-17T07:29:34.110Z,5.40
2023-03-17T07:32:02.640Z,5.50
2023-03-17T07:34:29.895Z,5.50
2023-03-17T07:36:57.340Z,5.50
2023-03-17T07:39:24.708Z,5.50
2023-03-17T07:41:57.937Z,5.50
2023-03-17T07:44:26.161Z,5.60
2023-03-17T07:46:53.759Z,5.70
2023-03-17T07:49:38.194Z,5.80
2023-03-17T07:52:09.708Z,6.00
2023-03-17T07:54:37.960Z,6.10
2023-03-17T07:57:06.788Z,6.20
2023-03-17T07:59:34.345Z,6.30
2023-03-17T08:02:02.024Z,6.40
2023-03-17T08:04:29.617Z,6.50
2023-03-17T08:06:57.882Z,6.70
2023-03-17T08:09:25.973Z,6.80
2023-03-17T08:11:53.438Z,6.80
2023-03-17T08:14:20.811Z,6.90
2023-03-17T08:16:48.554Z,7.00
2023-03-17T08:19:16.632Z,7.10
2023-03-17T08:21:44.163Z,7.20
2023-03-17T08:24:12.468Z,7.30
2023-03-17T08:26:39.663Z,7.30
2023-03-17T08:29:08.354Z,7.40
2023-03-17T08:31:36.935Z,7.50
2023-03-17T08:34:05.082Z,7.60
2023-03-17T08:36:32.690Z,7.70
2023-03-17T08:39:00.117Z,7.70
2023-03-17T08:41:28.565Z,7.80
2023-03-17T08:43:56.566Z,7.90
2023-03-17T08:46:29.779Z,8.00
2023-03-17T08:48:59.167Z,8.10
2023-03-17T08:51:30.145Z,8.10
2023-03-17T08:53:58.925Z,8.20
2023-03-17T08:56:27.380Z,8.30
2023-03-17T08:58:55.477Z,8.40
2023-03-17T09:01:24.843Z,8.60
2023-03-17T09:03:55.132Z,8.80
2023-03-17T09:06:23.540Z,9.00
2023-03-17T09:08:55.719Z,9.20
2023-03-17T09:11:26.239Z,9.40
2023-03-17T09:13:53.780Z,9.50
2023-03-17T09:16:22.135Z,9.50
2023-03-17T09:18:49.980Z,9.70
2023-03-17T09:21:17.621Z,9.90
2023-03-17T09:23:44.993Z,10.00
2023-03-17T09:26:12.980Z,10.10
2023-03-17T09:28:40.137Z,10.20
2023-03-17T09:31:11.938Z,10.30
2023-03-17T09:33:41.421Z,10.40
2023-03-17T09:36:10.485Z,10.50
2023-03-17T09:38:38.819Z,10.50
2023-03-17T09:41:43.658Z,10.60
2023-03-17T09:44:34.228Z,10.60
2023-03-17T09:47:37.034Z,10.70
2023-03-17T09:50:19.832Z,10.80
2023-03-17T09:52:48.042Z,10.80
2023-03-17T09:55:25.088Z,10.90
2023-03-17T09:57:57.120Z,11.00
2023-03-17T10:00:29.443Z,11.00
2023-03-17T10:02:58.464Z,11.10
2023-03-17T10:05:36.275Z,11.10
2023-03-17T10:08:32.513Z,11.10
2023-03-17T10:11:18.267Z,11.20
2023-03-17T10:13:58.185Z,11.20
2023-03-17T10:16:38.769Z,11.20
2023-03-17T10:19:33.362Z,11.20
2023-03-17T10:22:26.875Z,11.30
2023-03-17T10:25:03.944Z,11.30
2023-03-17T10:27:35.115Z,11.40
2023-03-17T10:30:02.551Z,11.40
2023-03-17T10:32:33.437Z,11.40
2023-03-17T10:35:02.648Z,11.50
2023-03-17T10:37:33.984Z,11.60
2023-03-17T10:40:01.363Z,11.60
2023-03-17T10:42:36.098Z,11.60
2023-03-17T10:45:28.141Z,11.60
2023-03-17T10:48:01.622Z,11.60
2023-03-17T10:50:34.749Z,11.70
2023-03-17T10:53:18.571Z,11.80
2023-03-17T10:55:55.522Z,11.90
2023-03-17T10:58:29.188Z,11.90
2023-03-17T11:01:06.422Z,11.90
2023-03-17T11:03:39.205Z,12.00
2023-03-17T11:06:17.265Z,12.10
2023-03-17T11:08:56.357Z,12.20
2023-03-17T11:11:33.841Z,12.30
2023-03-17T11:14:13.964Z,12.30
2023-03-17T11:16:53.884Z,12.30
2023-03-17T11:19:30.012Z,12.40
2023-03-17T11:22:12.066Z,12.40
2023-03-17T11:25:09.661Z,12.50
2023-03-17T11:27:49.229Z,12.50
2023-03-17T11:30:25.257Z,12.50
2023-03-17T11:32:56.779Z,12.60
2023-03-17T11:35:50.528Z,12.60
2023-03-17T11:38:41.646Z,12.70
2023-03-17T11:41:33.379Z,12.80
2023-03-17T11:44:37.746Z,12.80
2023-03-17T11:47:32.480Z,12.90
2023-03-17T11:50:16.756Z,12.90
2023-03-17T11:52:50.139Z,13.00
2023-03-17T11:55:46.266Z,13.00
2023-03-17T11:58:54.837Z,13.10
2023-03-17T12:01:58.363Z,13.10
2023-03-17T12:04:45.852Z,13.10
2023-03-17T12:07:18.359Z,13.20
2023-03-17T12:09:55.613Z,13.20
2023-03-17T12:12:28.706Z,13.20
2023-03-17T12:14:57.680Z,13.30
2023-03-17T12:17:33.615Z,13.30
2023-03-17T12:20:18.614Z,13.40
2023-03-17T12:23:07.292Z,13.40
2023-03-17T12:26:07.201Z,13.50
2023-03-17T12:28:48.681Z,13.50
2023-03-17T12:31:38.369Z,13.60
2023-03-17T12:34:26.163Z,13.70
2023-03-17T12:36:54.045Z,13.80
2023-03-17T12:39:33.954Z,13.80
2023-03-17T12:42:25.376Z,13.90
2023-03-17T12:45:16.075Z,13.90
2023-03-17T12:48:06.043Z,14.00
2023-03-17T12:51:11.017Z,14.10
2023-03-17T12:53:45.169Z,14.10
2023-03-17T12:56:34.106Z,14.10
2023-03-17T12:59:08.957Z,14.20
2023-03-17T13:02:15.527Z,14.30
2023-03-17T13:04:53.934Z,14.30
2023-03-17T13:07:34.612Z,14.40
2023-03-17T13:10:02.021Z,14.40
2023-03-17T13:12:44.771Z,14.40
2023-03-17T13:15:47.624Z,14.50
2023-03-17T13:18:15.612Z,14.60
2023-03-17T13:20:57.748Z,14.60
2023-03-17T13:23:56.844Z,14.70
2023-03-17T13:26:54.343Z,14.80
2023-03-17T13:29:35.225Z,14.80
2023-03-17T13:32:17.875Z,14.90
2023-03-17T13:34:49.977Z,14.90
2023-03-17T13:37:24.821Z,15.00
2023-03-17T13:40:33.294Z,15.10
2023-03-17T13:43:34.567Z,15.20
2023-03-17T13:46:40.449Z,15.40
2023-03-17T13:49:20.307Z,15.60
2023-03-17T13:52:13.624Z,15.70
2023-03-17T13:55:13.047Z,15.80
2023-03-17T13:57:40.572Z,15.90
2023-03-17T14:00:16.594Z,15.90
2023-03-17T14:02:45.602Z,16.00
2023-03-17T14:05:32.200Z,16.10
2023-03-17T14:08:17.132Z,16.50
2023-03-17T14:10:57.563Z,16.70
2023-03-17T14:13:49.039Z,16.90
2023-03-17T14:16:33.199Z,17.00
2023-03-17T14:19:22.056Z,16.90
2023-03-17T14:21:49.718Z,16.80
2023-03-17T14:24:22.056Z,16.80
2023-03-17T14:26:50.727Z,16.80
2023-03-17T14:29:21.838Z,16.80
2023-03-17T14:31:59.345Z,16.80
2023-03-17T14:34:35.857Z,16.80
2023-03-17T14:37:05.589Z,16.80
2023-03-17T14:39:32.840Z,16.80
2023-03-17T14:42:07.086Z,16.80
2023-03-17T14:44:42.546Z,16.70
2023-03-17T14:47:26.083Z,16.60
2023-03-17T14:49:54.853Z,16.60
2023-03-17T14:52:27.467Z,16.70
2023-03-17T14:54:58.670Z,16.70
2023-03-17T14:57:33.501Z,16.60
2023-03-17T15:00:40.950Z,16.40
2023-03-17T15:03:23.559Z,16.20
2023-03-17T15:05:51.411Z,16.00
2023-03-17T15:11:39.879Z,15.80
2023-03-17T15:14:15.820Z,15.80
2023-03-17T15:16:49.945Z,15.70
2023-03-17T15:19:28.881Z,15.70
2023-03-17T15:22:00.094Z,15.70
2023-03-17T15:24:47.613Z,15.60
2023-03-17T15:27:17.600Z,15.60
2023-03-17T15:29:46.259Z,15.60
2023-03-17T15:32:27.881Z,15.60
2023-03-17T15:34:57.470Z,15.60
2023-03-17T15:37:33.074Z,15.60
2023-03-17T15:40:01.470Z,15.60
2023-03-17T15:42:34.542Z,15.50
2023-03-17T15:45:02.207Z,15.40
2023-03-17T15:47:32.201Z,15.40
2023-03-17T15:50:24.267Z,15.40
2023-03-17T15:52:58.209Z,15.30
2023-03-17T15:55:32.159Z,15.30
2023-03-17T15:58:00.363Z,15.30
2023-03-17T16:00:30.276Z,15.20
2023-03-17T16:03:02.907Z,15.10
2023-03-17T16:05:33.316Z,15.00
2023-03-17T16:08:01.074Z,14.90
2023-03-17T16:10:32.209Z,14.80
2023-03-17T16:12:59.929Z,14.80
2023-03-17T16:15:31.646Z,14.60
2023-03-17T16:18:04.898Z,14.60
2023-03-17T16:20:52.561Z,14.50
2023-03-17T16:23:23.651Z,14.50
2023-03-17T16:25:52.626Z,14.40
2023-03-17T16:28:30.230Z,14.40
2023-03-17T16:30:59.388Z,14.30
2023-03-17T16:33:33.708Z,14.30
2023-03-17T16:36:01.496Z,14.30
2023-03-17T16:38:31.648Z,14.20
2023-03-17T16:41:08.800Z,14.10
2023-03-17T16:43:41.322Z,14.00
2023-03-17T16:46:12.036Z,13.90
2023-03-17T16:48:40.045Z,13.80
2023-03-17T16:51:08.014Z,13.80
2023-03-17T16:53:35.738Z,13.70
2023-03-17T16:56:03.935Z,13.60
2023-03-17T16:58:34.660Z,13.60
2023-03-17T17:01:06.580Z,13.60
2023-03-17T17:03:38.107Z,13.50
2023-03-17T17:06:07.440Z,13.60
2023-03-17T17:08:35.053Z,13.60
2023-03-17T17:11:03.053Z,13.50
2023-03-17T17:13:30.330Z,13.60
2023-03-17T17:15:57.714Z,13.50
2023-03-17T17:18:25.149Z,13.50
2023-03-17T17:20:55.286Z,13.50
2023-03-17T17:23:25.618Z,13.40
2023-03-17T17:25:54.211Z,13.30
2023-03-17T17:28:23.150Z,13.20
2023-03-17T17:30:51.775Z,13.10
2023-03-17T17:33:21.388Z,13.20
2023-03-17T17:35:49.458Z,13.10
2023-03-17T17:38:28.614Z,13.00
2023-03-17T17:40:58.312Z,13.00
2023-03-17T17:43:26.472Z,12.90
2023-03-17T17:45:53.894Z,12.80
2023-03-17T17:48:24.255Z,12.80
2023-03-17T17:50:53.441Z,12.80
2023-03-17T17:53:21.272Z,12.70
2023-03-17T17:55:50.061Z,12.60
2023-03-17T17:58:22.839Z,12.60
2023-03-17T18:00:51.185Z,12.60
2023-03-17T18:03:22.587Z,12.60
2023-03-17T18:05:50.015Z,12.50
2023-03-17T18:08:17.506Z,12.50
2023-03-17T18:10:44.870Z,12.40
2023-03-17T18:13:12.695Z,12.40
2023-03-17T18:15:40.039Z,12.30
2023-03-17T18:18:07.649Z,12.40
2023-03-17T18:20:35.327Z,12.30
2023-03-17T18:23:03.556Z,12.30
2023-03-17T18:25:31.170Z,12.30
2023-03-17T18:28:01.056Z,12.20
2023-03-17T18:30:31.183Z,12.20
2023-03-17T18:33:04.311Z,12.20
2023-03-17T18:35:31.854Z,12.10
2023-03-17T18:38:00.292Z,12.10
2023-03-17T18:40:27.972Z,12.00
2023-03-17T18:42:56.207Z,12.00
2023-03-17T18:45:24.052Z,12.00
2023-03-17T18:47:51.297Z,11.90
2023-03-17T18:50:20.085Z,11.90
2023-03-17T18:52:47.946Z,11.80
2023-03-17T18:55:16.481Z,11.80
2023-03-17T18:57:44.955Z,11.70
2023-03-17T19:00:14.191Z,11.60
2023-03-17T19:02:42.254Z,11.60
2023-03-17T19:05:10.537Z,11.60
2023-03-17T19:07:40.258Z,11.70
2023-03-17T19:10:08.905Z,11.70
2023-03-17T19:12:36.767Z,11.70
2023-03-17T19:15:05.070Z,11.70
2023-03-17T19:17:32.681Z,11.70
2023-03-17T19:19:59.935Z,11.60
2023-03-17T19:22:27.966Z,11.60
2023-03-17T19:24:55.194Z,11.60
2023-03-17T19:27:22.523Z,11.60
2023-03-17T19:29:49.961Z,11.60
2023-03-17T19:32:17.660Z,11.50
2023-03-17T19:34:44.917Z,11.50
2023-03-17T19:37:12.306Z,11.50
2023-03-17T19:39:39.381Z,11.40
2023-03-17T19:42:06.481Z,11.40
2023-03-17T19:44:34.157Z,11.40
2023-03-17T19:47:05.476Z,11.40
2023-03-17T19:49:34.880Z,11.30
2023-03-17T19:52:02.265Z,11.30
2023-03-17T19:54:29.815Z,11.30
2023-03-17T19:56:57.813Z,11.30
2023-03-17T19:59:25.316Z,11.20
2023-03-17T20:01:52.739Z,11.20
2023-03-17T20:04:21.978Z,11.20
2023-03-17T20:06:55.541Z,11.20
2023-03-17T20:09:27.485Z,11.10
2023-03-17T20:11:56.783Z,11.10
2023-03-17T20:14:24.107Z,11.10
2023-03-17T20:16:52.193Z,11.10
2023-03-17T20:19:19.845Z,11.20
2023-03-17T20:21:47.359Z,11.10
2023-03-17T20:24:15.138Z,11.10
2023-03-17T20:26:43.620Z,11.10
2023-03-17T20:29:13.070Z,11.10
2023-03-17T20:31:42.236Z,11.10
2023-03-17T20:34:10.536Z,11.10
2023-03-17T20:36:42.532Z,11.10
2023-03-17T20:39:14.098Z,11.10
2023-03-17T20:41:41.999Z,11.10
2023-03-17T20:44:09.489Z,11.10
2023-03-17T20:46:36.833Z,11.10
2023-03-17T20:49:05.852Z,11.10
2023-03-17T20:51:34.378Z,11.10
2023-03-17T20:54:04.216Z,11.10
2023-03-17T20:56:34.467Z,11.10
2023-03-17T20:59:05.435Z,11.10
2023-03-17T21:01:39.021Z,11.10
2023-03-17T21:04:09.413Z,11.10
2023-03-17T21:06:37.694Z,11.00
2023-03-17T21:09:05.576Z,11.00
2023-03-17T21:11:33.002Z,11.00
2023-03-17T21:14:00.383Z,11.00
2023-03-17T21:16:30.236Z,11.00
2023-03-17T21:18:57.592Z,11.00
2023-03-17T21:21:25.396Z,11.00
2023-03-17T21:23:52.637Z,11.00
2023-03-17T21:26:20.014Z,11.00
2023-03-17T21:28:49.041Z,11.00
2023-03-17T21:31:17.415Z,11.00
2023-03-17T21:33:45.495Z,11.00
2023-03-17T21:36:13.070Z,10.90
2023-03-17T21:38:40.477Z,10.90
2023-03-17T21:41:32.390Z,10.90
2023-03-17T21:44:00.873Z,10.90
2023-03-17T21:46:29.860Z,10.90
2023-03-17T21:48:57.363Z,10.90
2023-03-17T21:51:25.361Z,10.90
2023-03-17T21:53:53.325Z,10.90
2023-03-17T21:56:21.199Z,10.90
2023-03-17T21:58:49.310Z,10.90
2023-03-17T22:01:17.880Z,10.90
2023-03-17T22:03:45.123Z,10.90
2023-03-17T22:06:13.702Z,10.80
2023-03-17T22:08:41.573Z,10.80
2023-03-17T22:11:13.981Z,10.80
2023-03-17T22:13:41.948Z,10.70
2023-03-17T22:16:10.529Z,10.70
2023-03-17T22:18:38.315Z,10.60
2023-03-17T22:21:06.817Z,10.60
2023-03-17T22:23:39.914Z,10.60
2023-03-17T22:26:09.423Z,10.50
2023-03-17T22:28:38.223Z,10.50
2023-03-17T22:31:13.048Z,10.60
2023-03-17T22:33:40.400Z,10.60
2023-03-17T22:36:08.312Z,10.60
2023-03-17T22:38:35.895Z,10.60
2023-03-17T22:41:06.635Z,10.60
2023-03-17T22:43:34.575Z,10.60
2023-03-17T22:46:02.330Z,10.60
2023-03-17T22:48:36.434Z,10.60
2023-03-17T22:51:05.851Z,10.60
2023-03-17T22:53:33.426Z,10.60
2023-03-17T22:56:01.612Z,10.60
2023-03-17T22:58:29.471Z,10.60
2023-03-17T23:01:00.309Z,10.60
2023-03-17T23:03:29.501Z,10.60
2023-03-17T23:05:58.977Z,10.50
2023-03-17T23:08:28.065Z,10.50
2023-03-17T23:10:56.410Z,10.50
2023-03-17T23:13:26.934Z,10.40
2023-03-17T23:15:54.442Z,10.40
2023-03-17T23:18:21.877Z,10.40
2023-03-17T23:20:49.559Z,10.40
2023-03-17T23:23:17.829Z,10.30
2023-03-17T23:25:45.005Z,10.30
2023-03-17T23:28:15.716Z,10.20
2023-03-17T23:30:44.222Z,10.20
2023-03-17T23:33:14.240Z,10.10
2023-03-17T23:35:41.539Z,10.10
2023-03-17T23:38:09.068Z,10.00
2023-03-17T23:40:36.588Z,10.00
2023-03-17T23:43:05.875Z,9.90
2023-03-17T23:45:34.513Z,9.90
2023-03-17T23:48:03.038Z,9.90
2023-03-17T23:50:30.434Z,9.90
2023-03-17T23:52:57.895Z,9.90
2023-03-17T23:55:26.001Z,9.80
2023-03-17T23:57:53.143Z,9.80
